sensor_id;sensor_type;location;lat;lon;timestamp;pressure;altitude;pressure_sealevel;temperature;humidity
77723;BME280;67811;42.656;23.394;2023-07-28T00:01:24;95163.19;;;15.79;51.64
77723;BME280;67811;42.656;23.394;2023-07-28T00:03:50;95155.91;;;15.55;52.85
77723;BME280;67811;42.656;23.394;2023-07-28T00:06:15;95152.25;;;15.43;53.08
77723;BME280;67811;42.656;23.394;2023-07-28T00:08:40;95154.50;;;15.46;53.76
77723;BME280;67811;42.656;23.394;2023-07-28T00:11:09;95145.91;;;15.44;52.84
77723;BME280;67811;42.656;23.394;2023-07-28T00:13:34;95152.47;;;15.41;52.19
77723;BME280;67811;42.656;23.394;2023-07-28T00:16:00;95154.41;;;15.27;52.68
77723;BME280;67811;42.656;23.394;2023-07-28T00:18:25;95156.25;;;15.20;52.56
77723;BME280;67811;42.656;23.394;2023-07-28T00:20:50;95150.84;;;14.75;54.87
77723;BME280;67811;42.656;23.394;2023-07-28T00:23:16;95157.19;;;14.94;53.68
77723;BME280;67811;42.656;23.394;2023-07-28T00:25:41;95137.94;;;14.72;53.84
77723;BME280;67811;42.656;23.394;2023-07-28T00:28:06;95146.25;;;15.02;54.01
77723;BME280;67811;42.656;23.394;2023-07-28T00:30:31;95143.72;;;15.21;53.05
77723;BME280;67811;42.656;23.394;2023-07-28T00:32:57;95149.28;;;15.19;53.25
77723;BME280;67811;42.656;23.394;2023-07-28T00:35:22;95134.06;;;15.20;52.96
77723;BME280;67811;42.656;23.394;2023-07-28T00:37:47;95144.94;;;14.60;54.70
77723;BME280;67811;42.656;23.394;2023-07-28T00:40:12;95149.84;;;14.17;56.48
77723;BME280;67811;42.656;23.394;2023-07-28T00:42:38;95157.47;;;14.13;56.83
77723;BME280;67811;42.656;23.394;2023-07-28T00:45:03;95151.91;;;14.35;56.53
77723;BME280;67811;42.656;23.394;2023-07-28T00:47:29;95145.75;;;14.67;56.59
77723;BME280;67811;42.656;23.394;2023-07-28T00:49:54;95153.31;;;14.84;54.62
77723;BME280;67811;42.656;23.394;2023-07-28T00:52:19;95159.47;;;14.71;54.73
77723;BME280;67811;42.656;23.394;2023-07-28T00:54:45;95160.13;;;14.60;55.73
77723;BME280;67811;42.656;23.394;2023-07-28T00:57:10;95149.66;;;14.58;54.45
77723;BME280;67811;42.656;23.394;2023-07-28T00:59:36;95151.28;;;14.59;56.29
77723;BME280;67811;42.656;23.394;2023-07-28T01:02:01;95143.91;;;14.61;55.05
77723;BME280;67811;42.656;23.394;2023-07-28T01:04:26;95150.88;;;14.16;56.26
77723;BME280;67811;42.656;23.394;2023-07-28T01:07:09;95159.31;;;14.13;56.24
77723;BME280;67811;42.656;23.394;2023-07-28T01:12:29;95165.44;;;13.80;57.06
77723;BME280;67811;42.656;23.394;2023-07-28T01:14:54;95154.72;;;13.60;58.29
77723;BME280;67811;42.656;23.394;2023-07-28T01:17:20;95157.72;;;13.24;59.16
77723;BME280;67811;42.656;23.394;2023-07-28T01:19:45;95156.28;;;12.87;60.34
77723;BME280;67811;42.656;23.394;2023-07-28T01:25:22;95163.25;;;12.88;61.67
77723;BME280;67811;42.656;23.394;2023-07-28T01:27:51;95154.94;;;13.04;65.28
77723;BME280;67811;42.656;23.394;2023-07-28T01:30:17;95158.56;;;13.44;63.25
77723;BME280;67811;42.656;23.394;2023-07-28T01:32:42;95155.16;;;13.84;62.04
77723;BME280;67811;42.656;23.394;2023-07-28T01:35:09;95141.06;;;14.10;62.31
77723;BME280;67811;42.656;23.394;2023-07-28T01:37:34;95141.66;;;14.32;57.67
77723;BME280;67811;42.656;23.394;2023-07-28T01:40:00;95141.44;;;14.00;57.82
77723;BME280;67811;42.656;23.394;2023-07-28T01:42:25;95147.56;;;13.67;58.83
77723;BME280;67811;42.656;23.394;2023-07-28T01:44:50;95149.34;;;13.40;59.59
77723;BME280;67811;42.656;23.394;2023-07-28T01:47:15;95145.72;;;13.07;60.66
77723;BME280;67811;42.656;23.394;2023-07-28T01:49:41;95142.97;;;12.80;61.72
77723;BME280;67811;42.656;23.394;2023-07-28T01:52:06;95146.75;;;12.64;62.42
77723;BME280;67811;42.656;23.394;2023-07-28T01:54:32;95143.53;;;12.41;63.51
77723;BME280;67811;42.656;23.394;2023-07-28T01:56:57;95163.47;;;12.30;63.59
77723;BME280;67811;42.656;23.394;2023-07-28T01:59:22;95158.69;;;12.19;64.33
77723;BME280;67811;42.656;23.394;2023-07-28T02:01:48;95159.66;;;12.11;64.71
77723;BME280;67811;42.656;23.394;2023-07-28T02:04:13;95156.75;;;12.06;64.91
77723;BME280;67811;42.656;23.394;2023-07-28T02:06:38;95158.16;;;12.02;65.36
77723;BME280;67811;42.656;23.394;2023-07-28T02:09:04;95155.06;;;11.99;65.36
77723;BME280;67811;42.656;23.394;2023-07-28T02:11:29;95156.66;;;11.93;65.56
77723;BME280;67811;42.656;23.394;2023-07-28T02:13:54;95149.88;;;11.91;65.51
77723;BME280;67811;42.656;23.394;2023-07-28T02:16:19;95156.78;;;11.85;65.30
77723;BME280;67811;42.656;23.394;2023-07-28T02:18:45;95153.50;;;11.83;65.77
77723;BME280;67811;42.656;23.394;2023-07-28T02:21:10;95161.47;;;11.83;65.86
77723;BME280;67811;42.656;23.394;2023-07-28T02:23:35;95165.56;;;11.85;65.69
77723;BME280;67811;42.656;23.394;2023-07-28T02:26:01;95165.75;;;11.84;65.52
77723;BME280;67811;42.656;23.394;2023-07-28T02:28:27;95163.22;;;11.97;66.12
77723;BME280;67811;42.656;23.394;2023-07-28T02:30:52;95166.63;;;12.12;64.67
77723;BME280;67811;42.656;23.394;2023-07-28T02:33:17;95158.03;;;12.10;64.48
77723;BME280;67811;42.656;23.394;2023-07-28T02:35:43;95165.66;;;12.20;63.31
77723;BME280;67811;42.656;23.394;2023-07-28T02:38:08;95158.06;;;12.17;63.07
77723;BME280;67811;42.656;23.394;2023-07-28T02:40:33;95163.84;;;12.21;63.06
77723;BME280;67811;42.656;23.394;2023-07-28T02:42:58;95154.03;;;12.21;63.53
77723;BME280;67811;42.656;23.394;2023-07-28T02:45:24;95162.81;;;12.22;63.28
77723;BME280;67811;42.656;23.394;2023-07-28T02:47:49;95161.56;;;12.18;63.76
77723;BME280;67811;42.656;23.394;2023-07-28T02:50:14;95164.59;;;12.15;63.60
77723;BME280;67811;42.656;23.394;2023-07-28T02:52:40;95167.38;;;12.06;63.96
77723;BME280;67811;42.656;23.394;2023-07-28T02:55:05;95168.19;;;12.07;64.24
77723;BME280;67811;42.656;23.394;2023-07-28T02:57:30;95169.50;;;11.90;64.27
77723;BME280;67811;42.656;23.394;2023-07-28T02:59:56;95165.47;;;11.57;64.74
77723;BME280;67811;42.656;23.394;2023-07-28T03:02:21;95156.81;;;11.49;65.14
77723;BME280;67811;42.656;23.394;2023-07-28T03:04:46;95161.69;;;11.45;65.15
77723;BME280;67811;42.656;23.394;2023-07-28T03:07:11;95161.53;;;11.53;65.10
77723;BME280;67811;42.656;23.394;2023-07-28T03:09:37;95160.38;;;11.56;64.92
77723;BME280;67811;42.656;23.394;2023-07-28T03:12:02;95167.03;;;11.52;65.42
77723;BME280;67811;42.656;23.394;2023-07-28T03:14:27;95164.59;;;11.50;65.44
77723;BME280;67811;42.656;23.394;2023-07-28T03:16:53;95168.88;;;11.51;65.80
77723;BME280;67811;42.656;23.394;2023-07-28T03:19:18;95172.97;;;11.90;69.07
77723;BME280;67811;42.656;23.394;2023-07-28T03:21:43;95168.91;;;13.19;62.87
77723;BME280;67811;42.656;23.394;2023-07-28T03:24:08;95169.22;;;12.97;62.58
77723;BME280;67811;42.656;23.394;2023-07-28T03:26:34;95168.31;;;12.83;61.03
77723;BME280;67811;42.656;23.394;2023-07-28T03:28:59;95168.72;;;15.40;53.99
77723;BME280;67811;42.656;23.394;2023-07-28T03:31:24;95163.84;;;17.18;48.44
77723;BME280;67811;42.656;23.394;2023-07-28T03:33:49;95168.81;;;15.96;50.21
77723;BME280;67811;42.656;23.394;2023-07-28T03:36:15;95169.34;;;14.24;54.80
77723;BME280;67811;42.656;23.394;2023-07-28T03:38:40;95170.63;;;13.34;57.80
77723;BME280;67811;42.656;23.394;2023-07-28T03:41:05;95177.59;;;12.93;58.96
77723;BME280;67811;42.656;23.394;2023-07-28T03:43:31;95178.59;;;12.58;60.13
77723;BME280;67811;42.656;23.394;2023-07-28T03:45:56;95183.63;;;12.46;60.11
77723;BME280;67811;42.656;23.394;2023-07-28T03:48:21;95191.22;;;12.49;60.03
77723;BME280;67811;42.656;23.394;2023-07-28T03:50:46;95181.16;;;12.45;60.15
77723;BME280;67811;42.656;23.394;2023-07-28T03:53:12;95187.41;;;12.58;60.34
77723;BME280;67811;42.656;23.394;2023-07-28T03:55:37;95166.56;;;12.62;59.32
77723;BME280;67811;42.656;23.394;2023-07-28T03:58:02;95178.09;;;12.76;59.61
77723;BME280;67811;42.656;23.394;2023-07-28T04:00:28;95171.97;;;12.75;59.13
77723;BME280;67811;42.656;23.394;2023-07-28T04:02:54;95162.13;;;12.69;59.25
77723;BME280;67811;42.656;23.394;2023-07-28T04:05:19;95181.41;;;12.84;59.25
77723;BME280;67811;42.656;23.394;2023-07-28T04:07:44;95181.25;;;13.34;58.65
77723;BME280;67811;42.656;23.394;2023-07-28T04:10:10;95181.28;;;13.40;57.23
77723;BME280;67811;42.656;23.394;2023-07-28T04:12:35;95191.31;;;13.45;57.70
77723;BME280;67811;42.656;23.394;2023-07-28T04:15:00;95194.03;;;13.52;57.73
77723;BME280;67811;42.656;23.394;2023-07-28T04:17:25;95191.78;;;13.62;57.21
77723;BME280;67811;42.656;23.394;2023-07-28T04:19:51;95188.75;;;13.71;56.56
77723;BME280;67811;42.656;23.394;2023-07-28T04:22:16;95186.28;;;13.63;57.28
77723;BME280;67811;42.656;23.394;2023-07-28T04:24:41;95187.34;;;13.89;57.49
77723;BME280;67811;42.656;23.394;2023-07-28T04:27:06;95192.09;;;14.13;56.76
77723;BME280;67811;42.656;23.394;2023-07-28T04:29:32;95191.09;;;14.67;55.54
77723;BME280;67811;42.656;23.394;2023-07-28T04:31:57;95196.19;;;14.82;54.98
77723;BME280;67811;42.656;23.394;2023-07-28T04:34:22;95191.59;;;15.09;54.07
77723;BME280;67811;42.656;23.394;2023-07-28T04:36:47;95187.31;;;15.53;53.19
77723;BME280;67811;42.656;23.394;2023-07-28T04:39:12;95182.75;;;15.60;52.79
77723;BME280;67811;42.656;23.394;2023-07-28T04:41:38;95192.22;;;15.69;53.18
77723;BME280;67811;42.656;23.394;2023-07-28T04:44:03;95185.81;;;15.77;53.13
77723;BME280;67811;42.656;23.394;2023-07-28T04:46:28;95185.19;;;15.75;53.02
77723;BME280;67811;42.656;23.394;2023-07-28T04:48:54;95193.78;;;15.84;52.54
77723;BME280;67811;42.656;23.394;2023-07-28T04:51:19;95184.47;;;16.24;52.12
77723;BME280;67811;42.656;23.394;2023-07-28T04:53:44;95183.09;;;16.40;51.00
77723;BME280;67811;42.656;23.394;2023-07-28T04:56:10;95186.22;;;16.62;50.74
77723;BME280;67811;42.656;23.394;2023-07-28T04:58:35;95183.81;;;16.54;51.21
77723;BME280;67811;42.656;23.394;2023-07-28T05:01:00;95181.88;;;16.86;50.44
77723;BME280;67811;42.656;23.394;2023-07-28T05:03:26;95184.94;;;16.90;49.80
77723;BME280;67811;42.656;23.394;2023-07-28T05:05:51;95181.91;;;17.89;48.13
77723;BME280;67811;42.656;23.394;2023-07-28T05:08:16;95186.28;;;17.72;47.82
77723;BME280;67811;42.656;23.394;2023-07-28T05:10:42;95182.03;;;17.46;48.74
77723;BME280;67811;42.656;23.394;2023-07-28T05:13:07;95186.44;;;17.59;48.86
77723;BME280;67811;42.656;23.394;2023-07-28T05:15:32;95183.59;;;17.72;48.69
77723;BME280;67811;42.656;23.394;2023-07-28T05:17:58;95171.19;;;17.89;48.39
77723;BME280;67811;42.656;23.394;2023-07-28T05:20:23;95184.63;;;18.01;48.33
77723;BME280;67811;42.656;23.394;2023-07-28T05:22:48;95182.63;;;18.27;47.97
77723;BME280;67811;42.656;23.394;2023-07-28T05:25:14;95172.03;;;18.43;46.16
77723;BME280;67811;42.656;23.394;2023-07-28T05:27:39;95183.53;;;17.90;46.71
77723;BME280;67811;42.656;23.394;2023-07-28T05:30:05;95181.00;;;18.37;45.66
77723;BME280;67811;42.656;23.394;2023-07-28T05:32:31;95182.44;;;18.52;47.26
77723;BME280;67811;42.656;23.394;2023-07-28T05:34:56;95185.47;;;18.67;47.50
77723;BME280;67811;42.656;23.394;2023-07-28T05:37:22;95182.19;;;18.65;47.76
77723;BME280;67811;42.656;23.394;2023-07-28T05:39:47;95178.50;;;19.01;46.60
77723;BME280;67811;42.656;23.394;2023-07-28T05:42:12;95175.94;;;18.83;46.61
77723;BME280;67811;42.656;23.394;2023-07-28T05:44:38;95178.91;;;19.33;45.97
77723;BME280;67811;42.656;23.394;2023-07-28T05:47:03;95177.69;;;19.53;45.45
77723;BME280;67811;42.656;23.394;2023-07-28T05:49:28;95171.16;;;19.48;45.26
77723;BME280;67811;42.656;23.394;2023-07-28T05:51:53;95182.94;;;18.72;46.95
77723;BME280;67811;42.656;23.394;2023-07-28T05:54:19;95171.69;;;18.52;47.45
77723;BME280;67811;42.656;23.394;2023-07-28T05:56:44;95173.84;;;18.08;48.72
77723;BME280;67811;42.656;23.394;2023-07-28T05:59:09;95166.75;;;17.83;49.03
77723;BME280;67811;42.656;23.394;2023-07-28T06:01:35;95173.47;;;17.74;49.02
77723;BME280;67811;42.656;23.394;2023-07-28T06:04:00;95169.84;;;17.99;49.61
77723;BME280;67811;42.656;23.394;2023-07-28T06:06:26;95164.50;;;18.76;47.98
77723;BME280;67811;42.656;23.394;2023-07-28T06:08:52;95159.47;;;19.03;46.68
77723;BME280;67811;42.656;23.394;2023-07-28T06:11:17;95161.03;;;19.27;46.14
77723;BME280;67811;42.656;23.394;2023-07-28T06:13:42;95162.94;;;19.79;43.90
77723;BME280;67811;42.656;23.394;2023-07-28T06:16:07;95162.06;;;18.74;45.81
77723;BME280;67811;42.656;23.394;2023-07-28T06:18:33;95159.78;;;18.36;47.66
77723;BME280;67811;42.656;23.394;2023-07-28T06:20:58;95158.56;;;18.85;46.03
77723;BME280;67811;42.656;23.394;2023-07-28T06:23:23;95159.78;;;19.06;44.99
77723;BME280;67811;42.656;23.394;2023-07-28T06:25:48;95155.75;;;18.92;44.61
77723;BME280;67811;42.656;23.394;2023-07-28T06:28:14;95153.00;;;19.15;45.67
77723;BME280;67811;42.656;23.394;2023-07-28T06:30:39;95159.06;;;19.74;44.45
77723;BME280;67811;42.656;23.394;2023-07-28T06:33:06;95152.94;;;19.62;44.25
77723;BME280;67811;42.656;23.394;2023-07-28T06:35:31;95145.19;;;19.94;43.48
77723;BME280;67811;42.656;23.394;2023-07-28T06:37:56;95146.53;;;20.42;41.75
77723;BME280;67811;42.656;23.394;2023-07-28T06:40:22;95146.28;;;20.27;41.68
77723;BME280;67811;42.656;23.394;2023-07-28T06:42:47;95150.50;;;19.78;42.24
77723;BME280;67811;42.656;23.394;2023-07-28T06:45:12;95146.69;;;20.02;42.74
77723;BME280;67811;42.656;23.394;2023-07-28T06:47:37;95153.69;;;19.74;42.71
77723;BME280;67811;42.656;23.394;2023-07-28T06:50:03;95145.81;;;20.30;42.52
77723;BME280;67811;42.656;23.394;2023-07-28T06:52:28;95147.50;;;20.87;41.43
77723;BME280;67811;42.656;23.394;2023-07-28T06:54:54;95146.06;;;21.18;40.39
77723;BME280;67811;42.656;23.394;2023-07-28T06:57:19;95141.41;;;21.13;39.73
77723;BME280;67811;42.656;23.394;2023-07-28T06:59:44;95144.00;;;21.91;40.49
77723;BME280;67811;42.656;23.394;2023-07-28T07:02:10;95146.53;;;23.41;38.07
77723;BME280;67811;42.656;23.394;2023-07-28T07:04:35;95140.34;;;24.75;33.30
77723;BME280;67811;42.656;23.394;2023-07-28T07:07:00;95140.59;;;25.09;32.98
77723;BME280;67811;42.656;23.394;2023-07-28T07:09:26;95144.16;;;24.84;32.94
77723;BME280;67811;42.656;23.394;2023-07-28T07:11:51;95144.22;;;23.65;34.23
77723;BME280;67811;42.656;23.394;2023-07-28T07:14:16;95135.66;;;23.26;34.82
77723;BME280;67811;42.656;23.394;2023-07-28T07:16:42;95143.38;;;23.59;35.94
77723;BME280;67811;42.656;23.394;2023-07-28T07:19:07;95145.16;;;24.16;34.60
77723;BME280;67811;42.656;23.394;2023-07-28T07:21:33;95142.25;;;24.49;33.24
77723;BME280;67811;42.656;23.394;2023-07-28T07:23:58;95142.53;;;24.73;32.84
77723;BME280;67811;42.656;23.394;2023-07-28T07:26:24;95138.97;;;24.31;32.20
77723;BME280;67811;42.656;23.394;2023-07-28T07:28:49;95130.00;;;25.22;32.78
77723;BME280;67811;42.656;23.394;2023-07-28T07:31:15;95138.06;;;25.38;31.46
77723;BME280;67811;42.656;23.394;2023-07-28T07:33:40;95135.78;;;25.70;31.97
77723;BME280;67811;42.656;23.394;2023-07-28T07:36:11;95138.59;;;25.45;31.91
77723;BME280;67811;42.656;23.394;2023-07-28T07:38:37;95140.22;;;25.51;31.95
77723;BME280;67811;42.656;23.394;2023-07-28T07:41:02;95145.38;;;26.12;30.79
77723;BME280;67811;42.656;23.394;2023-07-28T07:43:27;95144.16;;;24.53;32.44
77723;BME280;67811;42.656;23.394;2023-07-28T07:45:53;95153.88;;;24.29;32.78
77723;BME280;67811;42.656;23.394;2023-07-28T07:48:18;95153.06;;;24.43;33.86
77723;BME280;67811;42.656;23.394;2023-07-28T07:50:43;95147.41;;;24.40;32.92
77723;BME280;67811;42.656;23.394;2023-07-28T07:53:08;95150.59;;;25.23;31.87
77723;BME280;67811;42.656;23.394;2023-07-28T07:55:34;95143.50;;;24.05;32.98
77723;BME280;67811;42.656;23.394;2023-07-28T07:57:59;95149.22;;;24.04;33.57
77723;BME280;67811;42.656;23.394;2023-07-28T08:00:24;95157.03;;;24.00;33.56
77723;BME280;67811;42.656;23.394;2023-07-28T08:02:49;95164.34;;;23.95;33.73
77723;BME280;67811;42.656;23.394;2023-07-28T08:05:15;95158.75;;;25.03;32.63
77723;BME280;67811;42.656;23.394;2023-07-28T08:07:41;95157.56;;;25.60;31.33
77723;BME280;67811;42.656;23.394;2023-07-28T08:10:06;95155.19;;;26.03;30.34
77723;BME280;67811;42.656;23.394;2023-07-28T08:12:32;95148.75;;;25.89;30.22
77723;BME280;67811;42.656;23.394;2023-07-28T08:14:57;95140.44;;;25.60;30.38
77723;BME280;67811;42.656;23.394;2023-07-28T08:17:22;95147.13;;;24.72;31.50
77723;BME280;67811;42.656;23.394;2023-07-28T08:19:48;95155.50;;;24.50;32.44
77723;BME280;67811;42.656;23.394;2023-07-28T08:22:13;95141.16;;;24.44;32.84
77723;BME280;67811;42.656;23.394;2023-07-28T08:24:38;95142.25;;;24.59;31.98
77723;BME280;67811;42.656;23.394;2023-07-28T08:27:04;95137.25;;;25.37;31.95
77723;BME280;67811;42.656;23.394;2023-07-28T08:29:29;95131.88;;;25.97;30.66
77723;BME280;67811;42.656;23.394;2023-07-28T08:31:54;95139.78;;;26.38;29.32
77723;BME280;67811;42.656;23.394;2023-07-28T08:34:20;95135.84;;;26.15;29.89
77723;BME280;67811;42.656;23.394;2023-07-28T08:36:45;95134.78;;;26.55;29.56
77723;BME280;67811;42.656;23.394;2023-07-28T08:39:10;95133.53;;;25.93;29.51
77723;BME280;67811;42.656;23.394;2023-07-28T08:41:36;95139.72;;;26.48;29.96
77723;BME280;67811;42.656;23.394;2023-07-28T08:44:02;95138.00;;;26.57;29.83
77723;BME280;67811;42.656;23.394;2023-07-28T08:46:27;95129.19;;;26.31;30.22
77723;BME280;67811;42.656;23.394;2023-07-28T08:48:53;95130.66;;;26.18;29.19
77723;BME280;67811;42.656;23.394;2023-07-28T08:51:18;95125.34;;;26.42;30.38
77723;BME280;67811;42.656;23.394;2023-07-28T08:53:43;95120.28;;;27.23;29.12
77723;BME280;67811;42.656;23.394;2023-07-28T08:56:09;95122.34;;;27.36;27.64
77723;BME280;67811;42.656;23.394;2023-07-28T08:58:34;95125.06;;;26.49;28.43
77723;BME280;67811;42.656;23.394;2023-07-28T09:00:59;95119.72;;;26.68;29.22
77723;BME280;67811;42.656;23.394;2023-07-28T09:03:25;95103.13;;;27.27;28.18
77723;BME280;67811;42.656;23.394;2023-07-28T09:05:50;95107.84;;;27.41;27.75
77723;BME280;67811;42.656;23.394;2023-07-28T09:08:16;95098.47;;;27.76;27.55
77723;BME280;67811;42.656;23.394;2023-07-28T09:13:09;95099.19;;;28.57;26.44
77723;BME280;67811;42.656;23.394;2023-07-28T09:15:35;95084.28;;;28.68;26.43
77723;BME280;67811;42.656;23.394;2023-07-28T09:18:00;95089.63;;;28.73;26.96
77723;BME280;67811;42.656;23.394;2023-07-28T09:20:33;95080.28;;;27.71;26.38
77723;BME280;67811;42.656;23.394;2023-07-28T09:22:59;95069.28;;;27.34;27.61
77723;BME280;67811;42.656;23.394;2023-07-28T09:25:28;95075.81;;;27.56;27.42
77723;BME280;67811;42.656;23.394;2023-07-28T09:27:53;95068.72;;;28.17;26.98
77723;BME280;67811;42.656;23.394;2023-07-28T09:30:19;95064.75;;;27.91;26.29
77723;BME280;67811;42.656;23.394;2023-07-28T09:32:49;95054.88;;;28.65;26.87
77723;BME280;67811;42.656;23.394;2023-07-28T09:35:15;95052.97;;;29.39;25.80
77723;BME280;67811;42.656;23.394;2023-07-28T09:37:42;95048.00;;;29.69;25.05
77723;BME280;67811;42.656;23.394;2023-07-28T09:40:08;95045.41;;;30.00;24.97
77723;BME280;67811;42.656;23.394;2023-07-28T09:42:34;95045.34;;;30.28;24.59
77723;BME280;67811;42.656;23.394;2023-07-28T09:45:00;95034.31;;;30.19;23.14
77723;BME280;67811;42.656;23.394;2023-07-28T09:47:25;95031.88;;;29.81;24.28
77723;BME280;67811;42.656;23.394;2023-07-28T09:49:54;95019.94;;;29.77;24.85
77723;BME280;67811;42.656;23.394;2023-07-28T09:52:23;95028.06;;;30.18;24.44
77723;BME280;67811;42.656;23.394;2023-07-28T09:54:52;95028.78;;;30.55;24.53
77723;BME280;67811;42.656;23.394;2023-07-28T09:57:21;95029.59;;;30.78;24.03
77723;BME280;67811;42.656;23.394;2023-07-28T09:59:47;95027.13;;;30.99;23.38
77723;BME280;67811;42.656;23.394;2023-07-28T10:02:13;95030.66;;;31.48;22.89
77723;BME280;67811;42.656;23.394;2023-07-28T10:04:38;95026.44;;;31.90;22.68
77723;BME280;67811;42.656;23.394;2023-07-28T10:07:04;95027.56;;;32.15;22.05
77723;BME280;67811;42.656;23.394;2023-07-28T10:09:31;95020.63;;;32.35;22.09
77723;BME280;67811;42.656;23.394;2023-07-28T10:11:56;95018.69;;;32.27;21.25
77723;BME280;67811;42.656;23.394;2023-07-28T10:16:51;95015.47;;;31.99;21.71
77723;BME280;67811;42.656;23.394;2023-07-28T10:19:20;95018.03;;;32.13;22.41
77723;BME280;67811;42.656;23.394;2023-07-28T10:21:45;95006.13;;;32.09;20.90
77723;BME280;67811;42.656;23.394;2023-07-28T10:24:11;95009.31;;;32.19;21.42
77723;BME280;67811;42.656;23.394;2023-07-28T10:26:38;95006.59;;;32.45;21.83
77723;BME280;67811;42.656;23.394;2023-07-28T10:29:14;95006.91;;;30.86;21.98
77723;BME280;67811;42.656;23.394;2023-07-28T10:31:50;95000.50;;;30.37;22.99
77723;BME280;67811;42.656;23.394;2023-07-28T10:34:17;94998.81;;;31.12;23.14
77723;BME280;67811;42.656;23.394;2023-07-28T10:36:43;94996.81;;;31.27;22.12
77723;BME280;67811;42.656;23.394;2023-07-28T10:39:15;94991.03;;;29.76;23.67
77723;BME280;67811;42.656;23.394;2023-07-28T10:42:10;94989.47;;;29.61;23.41
77723;BME280;67811;42.656;23.394;2023-07-28T10:44:36;94987.59;;;30.07;23.71
77723;BME280;67811;42.656;23.394;2023-07-28T10:47:07;94988.22;;;30.80;22.97
77723;BME280;67811;42.656;23.394;2023-07-28T10:49:33;94986.34;;;31.29;22.88
77723;BME280;67811;42.656;23.394;2023-07-28T10:51:58;94982.66;;;31.33;22.50
77723;BME280;67811;42.656;23.394;2023-07-28T10:54:24;94975.78;;;31.62;21.73
77723;BME280;67811;42.656;23.394;2023-07-28T10:56:49;94976.28;;;32.16;21.53
77723;BME280;67811;42.656;23.394;2023-07-28T10:59:15;94966.59;;;32.44;20.73
77723;BME280;67811;42.656;23.394;2023-07-28T11:01:42;94970.03;;;31.98;21.50
77723;BME280;67811;42.656;23.394;2023-07-28T11:06:33;94959.16;;;31.32;21.71
77723;BME280;67811;42.656;23.394;2023-07-28T11:08:58;94957.56;;;31.66;21.67
77723;BME280;67811;42.656;23.394;2023-07-28T11:11:23;94959.22;;;31.84;21.94
77723;BME280;67811;42.656;23.394;2023-07-28T11:13:49;94949.69;;;32.16;20.42
77723;BME280;67811;42.656;23.394;2023-07-28T11:16:14;94944.16;;;31.47;21.23
77723;BME280;67811;42.656;23.394;2023-07-28T11:18:39;94951.00;;;31.93;21.68
77723;BME280;67811;42.656;23.394;2023-07-28T11:21:04;94949.38;;;32.09;21.61
77723;BME280;67811;42.656;23.394;2023-07-28T11:23:30;94948.56;;;32.09;21.15
77723;BME280;67811;42.656;23.394;2023-07-28T11:25:55;94931.41;;;32.29;21.18
77723;BME280;67811;42.656;23.394;2023-07-28T11:28:21;94929.84;;;32.37;21.37
77723;BME280;67811;42.656;23.394;2023-07-28T11:30:46;94931.53;;;32.59;21.02
77723;BME280;67811;42.656;23.394;2023-07-28T11:33:12;94917.78;;;32.67;20.84
77723;BME280;67811;42.656;23.394;2023-07-28T11:35:38;94913.75;;;32.65;20.63
77723;BME280;67811;42.656;23.394;2023-07-28T11:38:04;94918.66;;;32.33;21.18
77723;BME280;67811;42.656;23.394;2023-07-28T11:40:30;94918.72;;;32.16;21.13
77723;BME280;67811;42.656;23.394;2023-07-28T11:42:56;94914.69;;;32.69;20.35
77723;BME280;67811;42.656;23.394;2023-07-28T11:45:22;94916.38;;;32.99;20.48
77723;BME280;67811;42.656;23.394;2023-07-28T11:47:55;94911.56;;;33.17;20.68
77723;BME280;67811;42.656;23.394;2023-07-28T11:50:24;94904.06;;;32.67;20.95
77723;BME280;67811;42.656;23.394;2023-07-28T11:52:50;94908.34;;;32.86;21.13
77723;BME280;67811;42.656;23.394;2023-07-28T11:55:15;94906.34;;;33.03;20.76
77723;BME280;67811;42.656;23.394;2023-07-28T11:57:42;94903.06;;;33.10;20.93
77723;BME280;67811;42.656;23.394;2023-07-28T12:00:08;94893.16;;;32.97;20.73
77723;BME280;67811;42.656;23.394;2023-07-28T12:02:34;94890.53;;;33.00;20.83
77723;BME280;67811;42.656;23.394;2023-07-28T12:04:59;94899.13;;;33.20;20.79
77723;BME280;67811;42.656;23.394;2023-07-28T12:07:31;94888.47;;;33.48;20.38
77723;BME280;67811;42.656;23.394;2023-07-28T12:09:57;94889.28;;;33.48;19.85
77723;BME280;67811;42.656;23.394;2023-07-28T12:12:28;94883.50;;;33.41;19.14
77723;BME280;67811;42.656;23.394;2023-07-28T12:14:53;94881.91;;;33.11;19.13
77723;BME280;67811;42.656;23.394;2023-07-28T12:17:21;94889.53;;;32.11;20.57
77723;BME280;67811;42.656;23.394;2023-07-28T12:20:02;94885.28;;;32.40;21.16
77723;BME280;67811;42.656;23.394;2023-07-28T12:22:27;94886.50;;;32.98;20.53
77723;BME280;67811;42.656;23.394;2023-07-28T12:24:55;94880.09;;;33.44;21.12
77723;BME280;67811;42.656;23.394;2023-07-28T12:27:22;94882.41;;;33.75;19.83
77723;BME280;67811;42.656;23.394;2023-07-28T12:29:47;94878.81;;;33.42;19.94
77723;BME280;67811;42.656;23.394;2023-07-28T12:32:12;94880.25;;;32.80;20.58
77723;BME280;67811;42.656;23.394;2023-07-28T12:34:37;94870.75;;;32.77;20.98
77723;BME280;67811;42.656;23.394;2023-07-28T12:37:03;94876.00;;;32.62;20.79
77723;BME280;67811;42.656;23.394;2023-07-28T12:39:28;94875.19;;;32.99;20.67
77723;BME280;67811;42.656;23.394;2023-07-28T12:41:54;94867.59;;;33.26;19.67
77723;BME280;67811;42.656;23.394;2023-07-28T12:44:19;94865.06;;;32.53;21.40
77723;BME280;67811;42.656;23.394;2023-07-28T12:46:45;94871.28;;;31.03;23.30
77723;BME280;67811;42.656;23.394;2023-07-28T12:49:10;94858.56;;;31.07;23.46
77723;BME280;67811;42.656;23.394;2023-07-28T12:51:35;94874.25;;;31.41;23.03
77723;BME280;67811;42.656;23.394;2023-07-28T12:54:00;94863.28;;;31.58;22.88
77723;BME280;67811;42.656;23.394;2023-07-28T12:56:26;94854.72;;;31.08;23.65